sensor_id;sensor_type;location;lat;lon;timestamp;temperature;humidity
40534;DHT22;26233;51.894;10.192;2024-03-02T00:01:21;11.90;45.80
40534;DHT22;26233;51.894;10.192;2024-03-02T00:03:48;11.90;45.90
40534;DHT22;26233;51.894;10.192;2024-03-02T00:06:16;11.90;45.90
40534;DHT22;26233;51.894;10.192;2024-03-02T00:08:47;11.90;45.90
40534;DHT22;26233;51.894;10.192;2024-03-02T00:11:16;12.00;46.00
40534;DHT22;26233;51.894;10.192;2024-03-02T00:13:45;11.90;45.90
40534;DHT22;26233;51.894;10.192;2024-03-02T00:16:12;12.00;46.00
40534;DHT22;26233;51.894;10.192;2024-03-02T00:18:41;11.90;46.00
40534;DHT22;26233;51.894;10.192;2024-03-02T00:21:10;11.90;46.00
40534;DHT22;26233;51.894;10.192;2024-03-02T00:23:38;11.90;46.00
40534;DHT22;26233;51.894;10.192;2024-03-02T00:26:11;11.90;46.00
40534;DHT22;26233;51.894;10.192;2024-03-02T00:28:40;12.00;46.00
40534;DHT22;26233;51.894;10.192;2024-03-02T00:31:10;11.90;46.00
40534;DHT22;26233;51.894;10.192;2024-03-02T00:33:41;11.90;46.00
40534;DHT22;26233;51.894;10.192;2024-03-02T00:36:11;11.90;46.00
40534;DHT22;26233;51.894;10.192;2024-03-02T00:38:46;11.90;46.70
40534;DHT22;26233;51.894;10.192;2024-03-02T00:41:21;11.90;46.00
40534;DHT22;26233;51.894;10.192;2024-03-02T00:43:59;11.90;46.00
40534;DHT22;26233;51.894;10.192;2024-03-02T00:46:29;11.90;46.00
40534;DHT22;26233;51.894;10.192;2024-03-02T00:48:58;11.90;46.10
40534;DHT22;26233;51.894;10.192;2024-03-02T00:51:28;11.90;46.10
40534;DHT22;26233;51.894;10.192;2024-03-02T00:53:59;11.90;46.10
40534;DHT22;26233;51.894;10.192;2024-03-02T00:56:31;11.90;46.10
40534;DHT22;26233;51.894;10.192;2024-03-02T00:58:59;11.90;46.10
40534;DHT22;26233;51.894;10.192;2024-03-02T01:01:26;11.90;46.10
40534;DHT22;26233;51.894;10.192;2024-03-02T01:03:54;11.90;46.10
40534;DHT22;26233;51.894;10.192;2024-03-02T01:06:21;11.90;46.20
40534;DHT22;26233;51.894;10.192;2024-03-02T01:08:48;11.90;46.20
40534;DHT22;26233;51.894;10.192;2024-03-02T01:11:17;11.90;46.20
40534;DHT22;26233;51.894;10.192;2024-03-02T01:13:46;11.90;46.20
40534;DHT22;26233;51.894;10.192;2024-03-02T01:16:13;11.90;46.20
40534;DHT22;26233;51.894;10.192;2024-03-02T01:18:42;11.80;46.20
40534;DHT22;26233;51.894;10.192;2024-03-02T01:21:09;11.90;46.20
40534;DHT22;26233;51.894;10.192;2024-03-02T01:23:37;11.90;46.20
40534;DHT22;26233;51.894;10.192;2024-03-02T01:26:04;11.90;46.20
40534;DHT22;26233;51.894;10.192;2024-03-02T01:28:31;11.90;46.20
40534;DHT22;26233;51.894;10.192;2024-03-02T01:30:59;11.80;46.10
40534;DHT22;26233;51.894;10.192;2024-03-02T01:33:27;11.90;46.20
40534;DHT22;26233;51.894;10.192;2024-03-02T01:35:55;11.90;46.20
40534;DHT22;26233;51.894;10.192;2024-03-02T01:38:22;11.90;46.20
40534;DHT22;26233;51.894;10.192;2024-03-02T01:40:49;11.90;46.20
40534;DHT22;26233;51.894;10.192;2024-03-02T01:43:17;11.90;46.20
40534;DHT22;26233;51.894;10.192;2024-03-02T01:45:44;11.90;46.20
40534;DHT22;26233;51.894;10.192;2024-03-02T01:48:13;11.80;46.20
40534;DHT22;26233;51.894;10.192;2024-03-02T01:50:40;11.90;46.20
40534;DHT22;26233;51.894;10.192;2024-03-02T01:53:09;11.80;46.20
40534;DHT22;26233;51.894;10.192;2024-03-02T01:55:36;11.80;46.10
40534;DHT22;26233;51.894;10.192;2024-03-02T01:58:03;11.80;46.20
40534;DHT22;26233;51.894;10.192;2024-03-02T02:00:30;11.80;46.20
40534;DHT22;26233;51.894;10.192;2024-03-02T02:02:58;11.80;46.20
40534;DHT22;26233;51.894;10.192;2024-03-02T02:05:26;11.80;46.20
40534;DHT22;26233;51.894;10.192;2024-03-02T02:07:54;11.70;46.10
40534;DHT22;26233;51.894;10.192;2024-03-02T02:10:21;11.70;46.10
40534;DHT22;26233;51.894;10.192;2024-03-02T02:12:48;11.70;46.20
40534;DHT22;26233;51.894;10.192;2024-03-02T02:15:23;11.70;46.20
40534;DHT22;26233;51.894;10.192;2024-03-02T02:17:51;11.70;46.20
40534;DHT22;26233;51.894;10.192;2024-03-02T02:20:18;11.70;46.30
40534;DHT22;26233;51.894;10.192;2024-03-02T02:22:58;11.60;46.10
40534;DHT22;26233;51.894;10.192;2024-03-02T02:25:27;11.60;46.10
40534;DHT22;26233;51.894;10.192;2024-03-02T02:27:55;11.60;46.20
40534;DHT22;26233;51.894;10.192;2024-03-02T02:30:24;11.60;46.20
40534;DHT22;26233;51.894;10.192;2024-03-02T02:32:52;11.60;46.80
40534;DHT22;26233;51.894;10.192;2024-03-02T02:35:19;11.60;46.20
40534;DHT22;26233;51.894;10.192;2024-03-02T02:37:47;11.50;46.20
40534;DHT22;26233;51.894;10.192;2024-03-02T02:40:16;11.50;46.20
40534;DHT22;26233;51.894;10.192;2024-03-02T02:42:44;11.60;46.40
40534;DHT22;26233;51.894;10.192;2024-03-02T02:45:11;11.50;46.30
40534;DHT22;26233;51.894;10.192;2024-03-02T02:47:40;11.50;46.30
40534;DHT22;26233;51.894;10.192;2024-03-02T02:50:08;11.60;46.40
40534;DHT22;26233;51.894;10.192;2024-03-02T02:52:38;11.50;46.40
40534;DHT22;26233;51.894;10.192;2024-03-02T02:55:08;11.50;46.40
40534;DHT22;26233;51.894;10.192;2024-03-02T02:57:38;11.60;46.50
40534;DHT22;26233;51.894;10.192;2024-03-02T03:00:09;11.60;46.50
40534;DHT22;26233;51.894;10.192;2024-03-02T03:02:40;11.60;46.50
40534;DHT22;26233;51.894;10.192;2024-03-02T03:05:09;11.60;46.50
40534;DHT22;26233;51.894;10.192;2024-03-02T03:07:36;11.60;46.50
40534;DHT22;26233;51.894;10.192;2024-03-02T03:10:06;11.60;46.50
40534;DHT22;26233;51.894;10.192;2024-03-02T03:12:34;11.60;46.50
40534;DHT22;26233;51.894;10.192;2024-03-02T03:15:04;11.60;46.50
40534;DHT22;26233;51.894;10.192;2024-03-02T03:17:32;11.60;46.50
40534;DHT22;26233;51.894;10.192;2024-03-02T03:19:59;11.60;46.50
40534;DHT22;26233;51.894;10.192;2024-03-02T03:22:28;11.60;46.50
40534;DHT22;26233;51.894;10.192;2024-03-02T03:24:55;11.60;46.50
40534;DHT22;26233;51.894;10.192;2024-03-02T03:27:22;11.60;46.50
40534;DHT22;26233;51.894;10.192;2024-03-02T03:29:51;11.70;46.70
40534;DHT22;26233;51.894;10.192;2024-03-02T03:32:18;11.70;46.60
40534;DHT22;26233;51.894;10.192;2024-03-02T03:34:45;11.70;46.60
40534;DHT22;26233;51.894;10.192;2024-03-02T03:37:13;11.70;46.70
40534;DHT22;26233;51.894;10.192;2024-03-02T03:39:41;11.70;46.70
40534;DHT22;26233;51.894;10.192;2024-03-02T03:42:08;11.70;46.60
40534;DHT22;26233;51.894;10.192;2024-03-02T03:44:35;11.70;46.70
40534;DHT22;26233;51.894;10.192;2024-03-02T03:47:04;11.70;46.70
40534;DHT22;26233;51.894;10.192;2024-03-02T03:49:31;11.70;46.70
40534;DHT22;26233;51.894;10.192;2024-03-02T03:51:59;11.70;46.70
40534;DHT22;26233;51.894;10.192;2024-03-02T03:54:26;11.70;46.70
40534;DHT22;26233;51.894;10.192;2024-03-02T03:56:54;11.70;46.70
40534;DHT22;26233;51.894;10.192;2024-03-02T03:59:22;11.70;46.70
40534;DHT22;26233;51.894;10.192;2024-03-02T04:01:49;11.70;46.70
40534;DHT22;26233;51.894;10.192;2024-03-02T04:04:17;11.70;46.60
40534;DHT22;26233;51.894;10.192;2024-03-02T04:06:45;11.70;46.70
40534;DHT22;26233;51.894;10.192;2024-03-02T04:09:12;11.70;46.70
40534;DHT22;26233;51.894;10.192;2024-03-02T04:11:39;11.70;46.70
40534;DHT22;26233;51.894;10.192;2024-03-02T04:14:07;11.70;46.70
40534;DHT22;26233;51.894;10.192;2024-03-02T04:16:34;11.70;46.70
40534;DHT22;26233;51.894;10.192;2024-03-02T04:19:01;11.80;46.80
40534;DHT22;26233;51.894;10.192;2024-03-02T04:21:31;11.80;46.80
40534;DHT22;26233;51.894;10.192;2024-03-02T04:23:58;11.80;46.80
40534;DHT22;26233;51.894;10.192;2024-03-02T04:26:25;11.80;46.80
40534;DHT22;26233;51.894;10.192;2024-03-02T04:28:53;11.80;46.80
40534;DHT22;26233;51.894;10.192;2024-03-02T04:31:20;11.80;46.80
40534;DHT22;26233;51.894;10.192;2024-03-02T04:33:47;11.80;46.80
40534;DHT22;26233;51.894;10.192;2024-03-02T04:36:15;11.70;46.70
40534;DHT22;26233;51.894;10.192;2024-03-02T04:38:43;11.70;46.70
40534;DHT22;26233;51.894;10.192;2024-03-02T04:41:11;11.70;46.70
40534;DHT22;26233;51.894;10.192;2024-03-02T04:43:38;11.70;46.70
40534;DHT22;26233;51.894;10.192;2024-03-02T04:46:05;11.70;46.70
40534;DHT22;26233;51.894;10.192;2024-03-02T04:48:33;11.70;46.70
40534;DHT22;26233;51.894;10.192;2024-03-02T04:51:00;11.70;46.80
40534;DHT22;26233;51.894;10.192;2024-03-02T04:53:27;11.70;46.80
40534;DHT22;26233;51.894;10.192;2024-03-02T04:55:56;11.70;46.80
40534;DHT22;26233;51.894;10.192;2024-03-02T04:58:41;11.70;46.80
40534;DHT22;26233;51.894;10.192;2024-03-02T05:01:08;11.70;46.80
40534;DHT22;26233;51.894;10.192;2024-03-02T05:03:36;11.70;46.80
40534;DHT22;26233;51.894;10.192;2024-03-02T05:06:04;11.70;46.90
40534;DHT22;26233;51.894;10.192;2024-03-02T05:08:31;11.70;46.90
40534;DHT22;26233;51.894;10.192;2024-03-02T05:10:59;11.80;47.00
40534;DHT22;26233;51.894;10.192;2024-03-02T05:13:47;11.70;46.90
40534;DHT22;26233;51.894;10.192;2024-03-02T05:16:14;11.70;46.90
40534;DHT22;26233;51.894;10.192;2024-03-02T05:18:41;11.70;46.90
40534;DHT22;26233;51.894;10.192;2024-03-02T05:21:08;11.60;46.80
40534;DHT22;26233;51.894;10.192;2024-03-02T05:23:37;11.70;46.90
40534;DHT22;26233;51.894;10.192;2024-03-02T05:26:05;11.60;46.80
40534;DHT22;26233;51.894;10.192;2024-03-02T05:28:33;11.60;46.80
40534;DHT22;26233;51.894;10.192;2024-03-02T05:31:00;11.60;46.80
40534;DHT22;26233;51.894;10.192;2024-03-02T05:33:27;11.60;46.80
40534;DHT22;26233;51.894;10.192;2024-03-02T05:35:56;11.60;46.80
40534;DHT22;26233;51.894;10.192;2024-03-02T05:38:24;11.60;46.90
40534;DHT22;26233;51.894;10.192;2024-03-02T05:40:51;11.60;46.90
40534;DHT22;26233;51.894;10.192;2024-03-02T05:43:19;11.60;47.00
40534;DHT22;26233;51.894;10.192;2024-03-02T05:45:47;11.60;46.90
40534;DHT22;26233;51.894;10.192;2024-03-02T05:48:15;11.60;46.90
40534;DHT22;26233;51.894;10.192;2024-03-02T05:50:42;11.60;46.90
40534;DHT22;26233;51.894;10.192;2024-03-02T05:53:09;11.60;47.00
40534;DHT22;26233;51.894;10.192;2024-03-02T05:55:36;11.60;47.00
40534;DHT22;26233;51.894;10.192;2024-03-02T05:58:04;11.60;47.00
40534;DHT22;26233;51.894;10.192;2024-03-02T06:00:49;11.70;47.10
40534;DHT22;26233;51.894;10.192;2024-03-02T06:03:16;11.70;47.20
40534;DHT22;26233;51.894;10.192;2024-03-02T06:05:43;11.60;47.10
40534;DHT22;26233;51.894;10.192;2024-03-02T06:08:11;11.60;47.10
40534;DHT22;26233;51.894;10.192;2024-03-02T06:10:38;11.60;47.10
40534;DHT22;26233;51.894;10.192;2024-03-02T06:13:06;11.60;47.10
40534;DHT22;26233;51.894;10.192;2024-03-02T06:15:33;11.60;47.10
40534;DHT22;26233;51.894;10.192;2024-03-02T06:18:03;11.60;47.10
40534;DHT22;26233;51.894;10.192;2024-03-02T06:20:32;11.60;47.20
40534;DHT22;26233;51.894;10.192;2024-03-02T06:22:59;11.60;47.20
40534;DHT22;26233;51.894;10.192;2024-03-02T06:25:26;11.70;47.30
40534;DHT22;26233;51.894;10.192;2024-03-02T06:27:54;11.60;47.20
40534;DHT22;26233;51.894;10.192;2024-03-02T06:30:21;11.60;47.10
40534;DHT22;26233;51.894;10.192;2024-03-02T06:32:48;11.70;47.20
40534;DHT22;26233;51.894;10.192;2024-03-02T06:35:16;11.70;47.30
40534;DHT22;26233;51.894;10.192;2024-03-02T06:37:44;11.70;47.30
40534;DHT22;26233;51.894;10.192;2024-03-02T06:40:11;11.70;47.30
40534;DHT22;26233;51.894;10.192;2024-03-02T06:42:38;11.80;47.30
40534;DHT22;26233;51.894;10.192;2024-03-02T06:45:06;11.80;47.30
40534;DHT22;26233;51.894;10.192;2024-03-02T06:47:33;11.80;47.30
40534;DHT22;26233;51.894;10.192;2024-03-02T06:50:00;11.80;47.20
40534;DHT22;26233;51.894;10.192;2024-03-02T06:52:29;11.80;47.30
40534;DHT22;26233;51.894;10.192;2024-03-02T06:54:56;11.90;47.30
40534;DHT22;26233;51.894;10.192;2024-03-02T06:57:24;11.90;47.30
40534;DHT22;26233;51.894;10.192;2024-03-02T06:59:51;11.90;47.30
40534;DHT22;26233;51.894;10.192;2024-03-02T07:02:20;12.00;47.40
40534;DHT22;26233;51.894;10.192;2024-03-02T07:04:48;12.00;47.40
40534;DHT22;26233;51.894;10.192;2024-03-02T07:07:16;12.00;47.40
40534;DHT22;26233;51.894;10.192;2024-03-02T07:09:45;12.00;47.40
40534;DHT22;26233;51.894;10.192;2024-03-02T07:12:13;12.00;47.30
40534;DHT22;26233;51.894;10.192;2024-03-02T07:14:41;12.00;47.30
40534;DHT22;26233;51.894;10.192;2024-03-02T07:17:33;12.10;47.40
40534;DHT22;26233;51.894;10.192;2024-03-02T07:20:03;12.10;47.40
40534;DHT22;26233;51.894;10.192;2024-03-02T07:22:32;12.10;47.40
40534;DHT22;26233;51.894;10.192;2024-03-02T07:25:01;12.10;47.40
40534;DHT22;26233;51.894;10.192;2024-03-02T07:27:29;12.20;47.40
40534;DHT22;26233;51.894;10.192;2024-03-02T07:29:57;12.20;48.00
40534;DHT22;26233;51.894;10.192;2024-03-02T07:32:24;12.20;48.00
40534;DHT22;26233;51.894;10.192;2024-03-02T07:34:52;12.30;47.60
40534;DHT22;26233;51.894;10.192;2024-03-02T07:37:19;12.30;47.50
40534;DHT22;26233;51.894;10.192;2024-03-02T07:39:46;12.40;47.60
40534;DHT22;26233;51.894;10.192;2024-03-02T07:42:15;12.40;47.50
40534;DHT22;26233;51.894;10.192;2024-03-02T07:44:43;12.40;47.50
40534;DHT22;26233;51.894;10.192;2024-03-02T07:47:11;12.40;47.40
40534;DHT22;26233;51.894;10.192;2024-03-02T07:49:38;12.50;47.50
40534;DHT22;26233;51.894;10.192;2024-03-02T07:52:06;12.50;47.40
40534;DHT22;26233;51.894;10.192;2024-03-02T07:54:33;12.60;47.50
40534;DHT22;26233;51.894;10.192;2024-03-02T07:57:00;12.60;47.40
40534;DHT22;26233;51.894;10.192;2024-03-02T07:59:29;12.70;47.50
40534;DHT22;26233;51.894;10.192;2024-03-02T08:01:56;12.70;47.50
40534;DHT22;26233;51.894;10.192;2024-03-02T08:04:23;12.80;47.50
40534;DHT22;26233;51.894;10.192;2024-03-02T08:06:51;12.80;47.40
40534;DHT22;26233;51.894;10.192;2024-03-02T08:09:18;12.90;47.50
40534;DHT22;26233;51.894;10.192;2024-03-02T08:11:45;12.90;47.50
40534;DHT22;26233;51.894;10.192;2024-03-02T08:14:13;13.00;47.40
40534;DHT22;26233;51.894;10.192;2024-03-02T08:16:41;13.00;47.50
40534;DHT22;26233;51.894;10.192;2024-03-02T08:19:09;13.10;47.60
40534;DHT22;26233;51.894;10.192;2024-03-02T08:21:36;13.20;47.70
40534;DHT22;26233;51.894;10.192;2024-03-02T08:24:04;13.30;47.60
40534;DHT22;26233;51.894;10.192;2024-03-02T08:26:32;13.40;47.70
40534;DHT22;26233;51.894;10.192;2024-03-02T08:28:59;13.40;47.40
40534;DHT22;26233;51.894;10.192;2024-03-02T08:31:27;13.60;47.60
40534;DHT22;26233;51.894;10.192;2024-03-02T08:33:55;13.60;47.40
40534;DHT22;26233;51.894;10.192;2024-03-02T08:36:24;13.60;47.20
40534;DHT22;26233;51.894;10.192;2024-03-02T08:38:51;13.70;46.90
40534;DHT22;26233;51.894;10.192;2024-03-02T08:41:18;13.70;46.90
40534;DHT22;26233;51.894;10.192;2024-03-02T08:43:46;13.70;46.80
40534;DHT22;26233;51.894;10.192;2024-03-02T08:46:13;13.80;47.00
40534;DHT22;26233;51.894;10.192;2024-03-02T08:48:40;13.80;46.90
40534;DHT22;26233;51.894;10.192;2024-03-02T08:51:09;13.80;46.90
40534;DHT22;26233;51.894;10.192;2024-03-02T08:53:36;13.90;47.00
40534;DHT22;26233;51.894;10.192;2024-03-02T08:56:04;14.00;47.10
40534;DHT22;26233;51.894;10.192;2024-03-02T08:58:32;14.10;47.10
40534;DHT22;26233;51.894;10.192;2024-03-02T09:00:59;14.20;47.30
40534;DHT22;26233;51.894;10.192;2024-03-02T09:03:26;14.30;47.50
40534;DHT22;26233;51.894;10.192;2024-03-02T09:05:53;14.60;47.90
40534;DHT22;26233;51.894;10.192;2024-03-02T09:08:22;14.80;48.30
40534;DHT22;26233;51.894;10.192;2024-03-02T09:10:49;15.10;48.40
40534;DHT22;26233;51.894;10.192;2024-03-02T09:13:16;15.40;48.50
40534;DHT22;26233;51.894;10.192;2024-03-02T09:15:44;15.70;48.40
40534;DHT22;26233;51.894;10.192;2024-03-02T09:18:11;15.90;48.10
40534;DHT22;26233;51.894;10.192;2024-03-02T09:20:39;16.10;47.70
40534;DHT22;26233;51.894;10.192;2024-03-02T09:23:06;16.30;47.40
40534;DHT22;26233;51.894;10.192;2024-03-02T09:25:34;16.50;47.00
40534;DHT22;26233;51.894;10.192;2024-03-02T09:28:03;16.50;46.70
40534;DHT22;26233;51.894;10.192;2024-03-02T09:30:30;16.70;46.90
40534;DHT22;26233;51.894;10.192;2024-03-02T09:32:57;16.80;46.80
40534;DHT22;26233;51.894;10.192;2024-03-02T09:35:25;16.80;46.50
40534;DHT22;26233;51.894;10.192;2024-03-02T09:37:52;16.90;46.40
40534;DHT22;26233;51.894;10.192;2024-03-02T09:40:22;17.00;46.40
40534;DHT22;26233;51.894;10.192;2024-03-02T09:42:51;17.10;46.10
40534;DHT22;26233;51.894;10.192;2024-03-02T09:45:22;17.10;45.70
40534;DHT22;26233;51.894;10.192;2024-03-02T09:47:50;17.10;45.10
40534;DHT22;26233;51.894;10.192;2024-03-02T09:50:17;16.90;44.70
40534;DHT22;26233;51.894;10.192;2024-03-02T09:52:48;16.80;44.60
40534;DHT22;26233;51.894;10.192;2024-03-02T09:55:16;16.70;44.40
40534;DHT22;26233;51.894;10.192;2024-03-02T09:57:45;16.50;44.40
40534;DHT22;26233;51.894;10.192;2024-03-02T10:00:16;16.40;44.30
40534;DHT22;26233;51.894;10.192;2024-03-02T10:02:44;16.20;44.20
40534;DHT22;26233;51.894;10.192;2024-03-02T10:05:23;16.10;44.40
40534;DHT22;26233;51.894;10.192;2024-03-02T10:07:59;15.90;43.80
40534;DHT22;26233;51.894;10.192;2024-03-02T10:10:35;15.80;43.80
40534;DHT22;26233;51.894;10.192;2024-03-02T10:13:06;15.70;43.80
40534;DHT22;26233;51.894;10.192;2024-03-02T10:15:38;15.60;44.10
40534;DHT22;26233;51.894;10.192;2024-03-02T10:18:09;15.40;44.00
40534;DHT22;26233;51.894;10.192;2024-03-02T10:20:37;15.40;44.20
40534;DHT22;26233;51.894;10.192;2024-03-02T10:23:12;15.40;44.40
40534;DHT22;26233;51.894;10.192;2024-03-02T10:25:40;15.30;44.30
40534;DHT22;26233;51.894;10.192;2024-03-02T10:28:08;15.30;44.60
40534;DHT22;26233;51.894;10.192;2024-03-02T10:30:37;15.30;44.60
40534;DHT22;26233;51.894;10.192;2024-03-02T10:33:05;15.30;44.60
40534;DHT22;26233;51.894;10.192;2024-03-02T10:35:33;15.30;44.40
40534;DHT22;26233;51.894;10.192;2024-03-02T10:38:04;15.30;44.40
40534;DHT22;26233;51.894;10.192;2024-03-02T10:40:32;15.20;44.20
40534;DHT22;26233;51.894;10.192;2024-03-02T10:43:00;15.20;44.30
40534;DHT22;26233;51.894;10.192;2024-03-02T10:45:29;15.20;44.30
40534;DHT22;26233;51.894;10.192;2024-03-02T10:47:58;15.20;44.40
40534;DHT22;26233;51.894;10.192;2024-03-02T10:50:27;15.30;44.50
40534;DHT22;26233;51.894;10.192;2024-03-02T10:52:54;15.30;44.50
40534;DHT22;26233;51.894;10.192;2024-03-02T10:55:22;15.30;44.50
40534;DHT22;26233;51.894;10.192;2024-03-02T10:57:51;15.30;44.60
40534;DHT22;26233;51.894;10.192;2024-03-02T11:00:19;15.30;44.30
40534;DHT22;26233;51.894;10.192;2024-03-02T11:02:51;15.40;44.40
40534;DHT22;26233;51.894;10.192;2024-03-02T11:05:27;15.40;44.40
40534;DHT22;26233;51.894;10.192;2024-03-02T11:08:00;15.40;44.20
40534;DHT22;26233;51.894;10.192;2024-03-02T11:10:34;15.40;44.50
40534;DHT22;26233;51.894;10.192;2024-03-02T11:13:05;15.50;44.50
40534;DHT22;26233;51.894;10.192;2024-03-02T11:15:36;15.50;44.50
40534;DHT22;26233;51.894;10.192;2024-03-02T11:18:05;15.60;44.60
40534;DHT22;26233;51.894;10.192;2024-03-02T11:20:37;15.60;44.50
40534;DHT22;26233;51.894;10.192;2024-03-02T11:23:06;15.60;44.30
40534;DHT22;26233;51.894;10.192;2024-03-02T11:25:33;15.70;44.50
40534;DHT22;26233;51.894;10.192;2024-03-02T11:28:05;15.70;44.60
40534;DHT22;26233;51.894;10.192;2024-03-02T11:30:50;15.80;44.60
40534;DHT22;26233;51.894;10.192;2024-03-02T11:33:25;15.90;44.90
40534;DHT22;26233;51.894;10.192;2024-03-02T11:35:56;16.10;44.70
40534;DHT22;26233;51.894;10.192;2024-03-02T11:38:28;16.20;44.90
40534;DHT22;26233;51.894;10.192;2024-03-02T11:40:57;16.30;44.80
40534;DHT22;26233;51.894;10.192;2024-03-02T11:43:26;16.40;44.70
40534;DHT22;26233;51.894;10.192;2024-03-02T11:45:58;16.50;44.50
40534;DHT22;26233;51.894;10.192;2024-03-02T11:48:26;16.60;44.40
40534;DHT22;26233;51.894;10.192;2024-03-02T11:50:53;16.70;44.60
40534;DHT22;26233;51.894;10.192;2024-03-02T11:53:27;16.80;44.40
40534;DHT22;26233;51.894;10.192;2024-03-02T11:55:55;16.90;44.70
40534;DHT22;26233;51.894;10.192;2024-03-02T11:58:23;17.10;44.90
40534;DHT22;26233;51.894;10.192;2024-03-02T12:00:52;17.30;45.00
40534;DHT22;26233;51.894;10.192;2024-03-02T12:03:22;17.50;45.00
40534;DHT22;26233;51.894;10.192;2024-03-02T12:05:51;17.60;44.70
40534;DHT22;26233;51.894;10.192;2024-03-02T12:08:20;17.80;44.20
40534;DHT22;26233;51.894;10.192;2024-03-02T12:10:59;17.80;44.00
40534;DHT22;26233;51.894;10.192;2024-03-02T12:13:28;17.80;43.40
40534;DHT22;26233;51.894;10.192;2024-03-02T12:15:56;17.90;43.80
40534;DHT22;26233;51.894;10.192;2024-03-02T12:18:23;17.90;43.60
40534;DHT22;26233;51.894;10.192;2024-03-02T12:20:51;17.90;43.50
40534;DHT22;26233;51.894;10.192;2024-03-02T12:23:23;17.80;43.20
40534;DHT22;26233;51.894;10.192;2024-03-02T12:25:50;17.70;42.90
40534;DHT22;26233;51.894;10.192;2024-03-02T12:28:18;17.60;42.80
40534;DHT22;26233;51.894;10.192;2024-03-02T12:30:46;17.50;42.70
40534;DHT22;26233;51.894;10.192;2024-03-02T12:33:14;17.40;42.80
40534;DHT22;26233;51.894;10.192;2024-03-02T12:35:41;17.30;43.00
40534;DHT22;26233;51.894;10.192;2024-03-02T12:38:09;17.20;43.00
40534;DHT22;26233;51.894;10.192;2024-03-02T12:40:39;17.20;43.30
40534;DHT22;26233;51.894;10.192;2024-03-02T12:43:06;17.30;43.50
40534;DHT22;26233;51.894;10.192;2024-03-02T12:45:33;17.40;43.70
40534;DHT22;26233;51.894;10.192;2024-03-02T12:48:01;17.50;43.50
40534;DHT22;26233;51.894;10.192;2024-03-02T12:50:28;17.50;43.40
40534;DHT22;26233;51.894;10.192;2024-03-02T12:52:55;17.50;43.10
40534;DHT22;26233;51.894;10.192;2024-03-02T12:55:23;17.60;43.20
40534;DHT22;26233;51.894;10.192;2024-03-02T12:57:52;17.60;43.30
40534;DHT22;26233;51.894;10.192;2024-03-02T13:00:20;17.70;43.30
40534;DHT22;26233;51.894;10.192;2024-03-02T13:02:49;17.80;43.30
40534;DHT22;26233;51.894;10.192;2024-03-02T13:05:17;17.90;43.30
40534;DHT22;26233;51.894;10.192;2024-03-02T13:07:47;17.90;43.30
40534;DHT22;26233;51.894;10.192;2024-03-02T13:10:14;18.10;43.20
40534;DHT22;26233;51.894;10.192;2024-03-02T13:12:42;18.20;43.40
40534;DHT22;26233;51.894;10.192;2024-03-02T13:15:10;18.30;43.50
40534;DHT22;26233;51.894;10.192;2024-03-02T13:17:38;18.40;43.00
40534;DHT22;26233;51.894;10.192;2024-03-02T13:20:06;18.40;42.70
40534;DHT22;26233;51.894;10.192;2024-03-02T13:22:36;18.40;42.50
40534;DHT22;26233;51.894;10.192;2024-03-02T13:25:04;18.40;42.40
40534;DHT22;26233;51.894;10.192;2024-03-02T13:27:31;18.40;42.20
40534;DHT22;26233;51.894;10.192;2024-03-02T13:29:59;18.30;42.00
40534;DHT22;26233;51.894;10.192;2024-03-02T13:32:27;18.30;42.00
40534;DHT22;26233;51.894;10.192;2024-03-02T13:34:54;18.30;42.00
40534;DHT22;26233;51.894;10.192;2024-03-02T13:37:22;18.20;42.10
40534;DHT22;26233;51.894;10.192;2024-03-02T13:39:49;18.30;42.10
40534;DHT22;26233;51.894;10.192;2024-03-02T13:42:16;18.20;41.70
40534;DHT22;26233;51.894;10.192;2024-03-02T13:44:44;18.20;41.60
40534;DHT22;26233;51.894;10.192;2024-03-02T13:47:13;18.20;41.70
40534;DHT22;26233;51.894;10.192;2024-03-02T13:49:42;18.20;41.70
40534;DHT22;26233;51.894;10.192;2024-03-02T13:52:12;18.20;41.70
40534;DHT22;26233;51.894;10.192;2024-03-02T13:54:40;18.20;42.50
40534;DHT22;26233;51.894;10.192;2024-03-02T13:57:08;18.20;41.90
40534;DHT22;26233;51.894;10.192;2024-03-02T13:59:36;18.30;41.90
40534;DHT22;26233;51.894;10.192;2024-03-02T14:02:05;18.30;41.60
40534;DHT22;26233;51.894;10.192;2024-03-02T14:04:32;18.30;41.20
40534;DHT22;26233;51.894;10.192;2024-03-02T14:07:02;18.20;41.10
40534;DHT22;26233;51.894;10.192;2024-03-02T14:09:30;18.20;41.00
40534;DHT22;26233;51.894;10.192;2024-03-02T14:11:57;18.20;41.20
40534;DHT22;26233;51.894;10.192;2024-03-02T14:14:26;18.20;41.40
40534;DHT22;26233;51.894;10.192;2024-03-02T14:16:54;18.30;41.60
40534;DHT22;26233;51.894;10.192;2024-03-02T14:19:26;18.30;41.50
40534;DHT22;26233;51.894;10.192;2024-03-02T14:21:53;18.40;41.40
40534;DHT22;26233;51.894;10.192;2024-03-02T14:24:22;18.40;41.50
40534;DHT22;26233;51.894;10.192;2024-03-02T14:26:51;18.50;41.60
40534;DHT22;26233;51.894;10.192;2024-03-02T14:29:18;18.60;41.70
40534;DHT22;26233;51.894;10.192;2024-03-02T14:31:46;18.70;41.60
40534;DHT22;26233;51.894;10.192;2024-03-02T14:34:14;18.80;41.60
40534;DHT22;26233;51.894;10.192;2024-03-02T14:36:41;18.90;41.20
40534;DHT22;26233;51.894;10.192;2024-03-02T14:39:09;18.90;41.30
40534;DHT22;26233;51.894;10.192;2024-03-02T14:41:38;18.90;41.20
40534;DHT22;26233;51.894;10.192;2024-03-02T14:44:05;19.00;41.20
40534;DHT22;26233;51.894;10.192;2024-03-02T14:46:32;19.10;41.20
40534;DHT22;26233;51.894;10.192;2024-03-02T14:48:59;19.10;41.10
40534;DHT22;26233;51.894;10.192;2024-03-02T14:51:26;19.10;40.90
40534;DHT22;26233;51.894;10.192;2024-03-02T14:53:55;19.10;40.80
40534;DHT22;26233;51.894;10.192;2024-03-02T14:56:22;19.00;40.70
40534;DHT22;26233;51.894;10.192;2024-03-02T14:58:51;19.10;40.80
40534;DHT22;26233;51.894;10.192;2024-03-02T15:01:19;19.10;40.70
40534;DHT22;26233;51.894;10.192;2024-03-02T15:03:48;19.10;40.50
40534;DHT22;26233;51.894;10.192;2024-03-02T15:06:15;19.00;40.00
40534;DHT22;26233;51.894;10.192;2024-03-02T15:08:43;18.90;39.70
40534;DHT22;26233;51.894;10.192;2024-03-02T15:11:12;18.80;39.60
40534;DHT22;26233;51.894;10.192;2024-03-02T15:13:40;18.70;39.30
40534;DHT22;26233;51.894;10.192;2024-03-02T15:16:08;18.60;39.20
40534;DHT22;26233;51.894;10.192;2024-03-02T15:18:36;18.50;39.20
40534;DHT22;26233;51.894;10.192;2024-03-02T15:21:03;18.30;39.20
40534;DHT22;26233;51.894;10.192;2024-03-02T15:23:31;18.30;39.50